createdAt,value
2022-10-31T00:00:24.713Z,2.00
2022-10-31T00:01:24.631Z,1.90
2022-10-31T00:02:24.665Z,1.70
2022-10-31T00:03:24.617Z,2.10
2022-10-31T00:04:24.591Z,1.50
2022-10-31T00:05:24.598Z,1.90
2022-10-31T00:06:24.628Z,2.10
2022-10-31T00:07:24.574Z,1.90
2022-10-31T00:08:24.571Z,1.80
2022-10-31T00:09:24.590Z,2.00
2022-10-31T00:10:24.559Z,2.00
2022-10-31T00:11:24.538Z,1.70
2022-10-31T00:12:24.519Z,1.80
2022-10-31T00:13:24.505Z,1.90
2022-10-31T00:14:24.538Z,1.70
2022-10-31T00:15:24.499Z,1.70
2022-10-31T00:16:24.508Z,1.70
2022-10-31T00:17:24.451Z,1.70
2022-10-31T00:18:24.463Z,1.70
2022-10-31T00:19:24.462Z,1.80
2022-10-31T00:20:24.461Z,2.10
2022-10-31T00:21:24.427Z,2.00
2022-10-31T00:22:24.412Z,1.80
2022-10-31T00:23:24.401Z,1.80
2022-10-31T00:24:24.391Z,2.00
2022-10-31T00:25:24.383Z,2.00
2022-10-31T00:26:25.338Z,1.70
2022-10-31T00:27:24.357Z,2.20
2022-10-31T00:28:24.351Z,2.20
2022-10-31T00:29:24.349Z,1.50
2022-10-31T00:30:24.320Z,1.70
2022-10-31T00:31:24.320Z,2.00
2022-10-31T00:32:24.300Z,1.60
2022-10-31T00:33:24.290Z,2.00
2022-10-31T00:34:25.253Z,1.80
2022-10-31T00:35:24.291Z,1.90
2022-10-31T00:36:24.281Z,1.80
2022-10-31T00:37:24.270Z,2.00
2022-10-31T00:38:24.264Z,2.20
2022-10-31T00:39:24.239Z,2.00
2022-10-31T00:40:24.225Z,1.80
2022-10-31T00:41:24.280Z,2.10
2022-10-31T00:42:24.205Z,2.20
2022-10-31T00:43:24.199Z,2.10
2022-10-31T00:44:24.175Z,1.90
2022-10-31T00:45:24.162Z,1.70
2022-10-31T00:46:24.157Z,4.70
2022-10-31T00:47:24.172Z,1.90
2022-10-31T00:48:24.132Z,2.00
2022-10-31T00:49:24.120Z,1.80
2022-10-31T00:50:24.126Z,1.70
2022-10-31T00:51:24.113Z,2.10
2022-10-31T00:52:24.142Z,1.70
2022-10-31T00:53:24.092Z,2.20
2022-10-31T00:54:24.074Z,2.30
2022-10-31T00:55:24.113Z,1.80
2022-10-31T00:56:24.062Z,1.70
2022-10-31T00:57:24.044Z,2.10
2022-10-31T00:58:24.040Z,2.10
2022-10-31T00:59:24.020Z,1.70
2022-10-31T01:00:24.010Z,1.60
2022-10-31T01:01:24.085Z,1.70
2022-10-31T01:02:24.124Z,2.30
2022-10-31T01:03:24.000Z,2.00
2022-10-31T01:04:23.961Z,1.70
2022-10-31T01:05:23.990Z,2.00
2022-10-31T01:06:23.962Z,2.20
2022-10-31T01:07:23.945Z,1.80
2022-10-31T01:08:23.947Z,1.90
2022-10-31T01:09:23.924Z,1.80
2022-10-31T01:10:23.953Z,1.90
2022-10-31T01:11:23.891Z,2.20
2022-10-31T01:12:23.951Z,2.20
2022-10-31T01:13:23.874Z,1.70
2022-10-31T01:14:23.900Z,1.70
2022-10-31T01:15:23.863Z,1.80
2022-10-31T01:16:23.872Z,1.80
2022-10-31T01:17:23.844Z,2.10
2022-10-31T01:18:24.532Z,1.80
2022-10-31T01:19:23.823Z,1.90
2022-10-31T01:20:23.833Z,1.60
2022-10-31T01:21:23.859Z,1.60
2022-10-31T01:22:23.826Z,2.40
2022-10-31T01:23:23.773Z,1.70
2022-10-31T01:24:23.772Z,1.60
2022-10-31T01:25:23.771Z,1.50
2022-10-31T01:27:20.481Z,1.90
2022-10-31T01:28:20.580Z,1.90
2022-10-31T01:29:20.461Z,1.70
2022-10-31T01:30:20.453Z,1.90
2022-10-31T01:31:20.441Z,1.70
2022-10-31T01:32:20.449Z,2.00
2022-10-31T01:33:20.444Z,1.70
2022-10-31T01:34:20.420Z,1.80
2022-10-31T01:35:20.391Z,1.80
2022-10-31T01:36:20.390Z,1.60
2022-10-31T01:37:20.382Z,1.90
2022-10-31T01:38:20.369Z,1.80
2022-10-31T01:39:20.359Z,1.80
2022-10-31T01:40:20.360Z,1.80
2022-10-31T01:41:20.339Z,1.90
2022-10-31T01:42:20.351Z,1.70
2022-10-31T01:44:20.341Z,1.70
2022-10-31T01:45:20.301Z,2.20
2022-10-31T01:46:20.302Z,2.10
2022-10-31T01:47:20.302Z,1.90
2022-10-31T01:48:20.272Z,1.60
2022-10-31T01:49:20.262Z,1.60
2022-10-31T01:50:20.289Z,2.30
2022-10-31T01:51:20.240Z,2.00
2022-10-31T01:52:20.231Z,1.90
2022-10-31T01:53:24.353Z,2.10
2022-10-31T01:54:21.218Z,2.10
2022-10-31T01:55:20.229Z,1.60
2022-10-31T01:56:20.190Z,1.80
2022-10-31T01:57:20.179Z,2.00
2022-10-31T01:58:20.186Z,2.00
2022-10-31T01:59:20.199Z,1.60
2022-10-31T02:00:20.159Z,2.20
2022-10-31T02:01:20.256Z,1.90
2022-10-31T02:02:20.272Z,1.90
2022-10-31T02:03:20.111Z,1.90
2022-10-31T02:04:20.114Z,2.30
2022-10-31T02:05:20.124Z,2.00
2022-10-31T02:06:20.099Z,1.60
2022-10-31T02:07:20.089Z,2.00
2022-10-31T02:08:20.062Z,2.00
2022-10-31T02:09:20.160Z,1.70
2022-10-31T02:10:20.072Z,1.80
2022-10-31T02:11:20.048Z,1.40
2022-10-31T02:12:20.052Z,2.00
2022-10-31T02:13:20.077Z,2.40
2022-10-31T02:14:20.024Z,1.70
2022-10-31T02:15:19.987Z,2.00
2022-10-31T02:16:19.984Z,1.90
2022-10-31T02:17:20.001Z,2.00
2022-10-31T02:18:19.960Z,1.80
2022-10-31T02:19:19.960Z,2.10
2022-10-31T02:20:19.938Z,1.90
2022-10-31T02:21:19.932Z,1.90
2022-10-31T02:22:19.926Z,1.70
2022-10-31T02:23:19.935Z,2.00
2022-10-31T02:24:19.928Z,1.60
2022-10-31T02:25:19.892Z,1.60
2022-10-31T02:26:19.892Z,1.60
2022-10-31T02:27:19.904Z,2.00
2022-10-31T02:28:19.876Z,2.00
2022-10-31T02:29:19.844Z,1.70
2022-10-31T02:30:19.856Z,1.70
2022-10-31T02:31:19.821Z,2.10
2022-10-31T02:32:19.813Z,1.70
2022-10-31T02:33:19.839Z,1.70
2022-10-31T02:34:19.799Z,2.10
2022-10-31T02:35:19.783Z,2.00
2022-10-31T02:36:19.781Z,2.10
2022-10-31T02:37:19.774Z,1.90
2022-10-31T02:38:19.753Z,1.80
2022-10-31T02:39:19.763Z,1.70
2022-10-31T02:40:19.743Z,1.90
2022-10-31T02:41:19.723Z,1.90
2022-10-31T02:42:19.724Z,2.20
2022-10-31T02:43:19.725Z,1.70
2022-10-31T02:44:19.725Z,1.90
2022-10-31T02:45:19.695Z,1.90
2022-10-31T02:46:19.671Z,1.80
2022-10-31T02:47:19.662Z,2.10
2022-10-31T02:48:20.306Z,1.60
2022-10-31T02:49:19.662Z,1.90
2022-10-31T02:50:19.667Z,1.90
2022-10-31T02:51:20.580Z,1.70
2022-10-31T02:52:19.610Z,1.90
2022-10-31T02:53:19.603Z,1.90
2022-10-31T02:54:19.603Z,1.80
2022-10-31T02:55:19.758Z,2.30
2022-10-31T02:56:19.593Z,1.90
2022-10-31T02:57:19.569Z,1.90
2022-10-31T02:59:19.556Z,2.00
2022-10-31T03:00:19.553Z,1.70
2022-10-31T03:01:19.666Z,1.80
2022-10-31T03:02:19.563Z,2.00
2022-10-31T03:03:19.495Z,2.20
2022-10-31T03:04:19.506Z,1.60
2022-10-31T03:05:19.502Z,2.00
2022-10-31T03:06:19.512Z,1.60
2022-10-31T03:07:19.453Z,1.70
2022-10-31T03:08:19.462Z,1.80
2022-10-31T03:09:19.442Z,1.80
2022-10-31T03:10:19.476Z,1.70
2022-10-31T03:11:19.454Z,1.70
2022-10-31T03:12:19.423Z,2.20
2022-10-31T03:13:19.505Z,1.90
2022-10-31T03:14:19.385Z,1.80
2022-10-31T03:15:19.388Z,2.00
2022-10-31T03:16:19.401Z,1.60
2022-10-31T03:17:19.422Z,1.80
2022-10-31T03:18:19.354Z,1.80
2022-10-31T03:19:19.364Z,1.80
2022-10-31T03:20:19.343Z,2.10
2022-10-31T03:21:19.333Z,1.70
2022-10-31T03:22:19.313Z,1.70
2022-10-31T03:23:19.335Z,1.80
2022-10-31T03:24:19.303Z,1.70
2022-10-31T03:25:19.276Z,1.80
2022-10-31T03:26:19.283Z,1.50
2022-10-31T03:27:19.242Z,1.90
2022-10-31T03:29:19.234Z,1.70
2022-10-31T03:30:19.231Z,1.70
2022-10-31T03:31:19.245Z,2.10
2022-10-31T03:32:19.213Z,1.70
2022-10-31T03:33:19.203Z,1.80
2022-10-31T03:34:19.187Z,1.80
2022-10-31T03:35:19.174Z,2.00
2022-10-31T03:36:19.175Z,1.50
2022-10-31T03:37:19.164Z,2.00
2022-10-31T03:38:19.144Z,1.50
2022-10-31T03:39:19.139Z,1.90
2022-10-31T03:40:19.126Z,1.80
2022-10-31T03:41:19.146Z,1.70
2022-10-31T03:42:19.116Z,2.10
2022-10-31T03:43:19.137Z,1.60
2022-10-31T03:44:19.072Z,2.00
2022-10-31T03:45:19.073Z,1.70
2022-10-31T03:46:19.066Z,1.70
2022-10-31T03:47:19.071Z,1.70
2022-10-31T03:48:19.076Z,1.60
2022-10-31T03:49:19.025Z,1.90
2022-10-31T03:50:19.150Z,1.80
2022-10-31T03:51:19.055Z,2.00
2022-10-31T03:52:19.010Z,2.00
2022-10-31T03:53:18.986Z,1.80
2022-10-31T03:54:19.029Z,2.00
2022-10-31T03:55:19.017Z,1.70
2022-10-31T03:56:18.995Z,1.70
2022-10-31T03:57:18.957Z,1.80
2022-10-31T03:59:18.924Z,1.70
2022-10-31T04:00:18.923Z,1.90
2022-10-31T04:01:19.049Z,1.80
2022-10-31T04:02:19.096Z,1.70
2022-10-31T04:03:18.884Z,1.70
2022-10-31T04:04:18.892Z,1.60
2022-10-31T04:05:19.848Z,1.90
2022-10-31T04:06:18.855Z,1.50
2022-10-31T04:07:18.905Z,1.80
2022-10-31T04:08:18.846Z,1.90
2022-10-31T04:09:18.836Z,1.80
2022-10-31T04:10:18.867Z,2.10
2022-10-31T04:11:18.824Z,1.80
2022-10-31T04:12:18.916Z,1.70
2022-10-31T04:14:18.854Z,1.70
2022-10-31T04:15:18.763Z,1.80
2022-10-31T04:16:18.754Z,1.50
2022-10-31T04:17:18.754Z,1.70
2022-10-31T04:18:18.763Z,1.80
2022-10-31T04:19:18.715Z,1.70
2022-10-31T04:20:18.732Z,1.80
2022-10-31T04:21:18.745Z,1.70
2022-10-31T04:22:18.715Z,1.90
2022-10-31T04:23:19.646Z,1.60
2022-10-31T04:24:18.676Z,2.00
2022-10-31T04:25:18.667Z,1.50
2022-10-31T04:26:18.656Z,1.60
2022-10-31T04:27:18.656Z,1.90
2022-10-31T04:29:18.637Z,1.60
2022-10-31T04:30:18.627Z,1.50
2022-10-31T04:31:18.606Z,1.80
2022-10-31T04:32:18.600Z,1.80
2022-10-31T04:33:18.635Z,2.10
2022-10-31T04:34:18.583Z,2.00
2022-10-31T04:35:18.577Z,1.30
2022-10-31T04:36:18.558Z,1.80
2022-10-31T04:37:18.556Z,1.70
2022-10-31T04:38:18.919Z,1.60
2022-10-31T04:39:22.671Z,1.90
2022-10-31T04:40:19.505Z,1.60
2022-10-31T04:41:18.525Z,2.00
2022-10-31T04:42:18.496Z,1.60
2022-10-31T04:43:21.467Z,1.90
2022-10-31T04:44:18.501Z,1.60
2022-10-31T04:45:21.123Z,1.30
2022-10-31T04:46:18.480Z,1.60
2022-10-31T04:47:18.478Z,1.80
2022-10-31T04:48:18.437Z,1.50
2022-10-31T04:49:18.428Z,1.60
2022-10-31T04:50:18.417Z,1.70
2022-10-31T04:51:18.426Z,1.70
2022-10-31T04:52:18.400Z,1.60
2022-10-31T04:53:18.395Z,1.30
2022-10-31T04:54:18.363Z,1.50
2022-10-31T04:55:18.378Z,1.80
2022-10-31T04:56:18.347Z,1.70
2022-10-31T04:57:18.346Z,1.70
2022-10-31T04:58:18.327Z,1.60
2022-10-31T04:59:18.345Z,1.60
2022-10-31T05:00:18.323Z,1.60
2022-10-31T05:01:18.373Z,1.80
2022-10-31T05:02:18.368Z,1.90
2022-10-31T05:03:18.285Z,1.50
2022-10-31T05:04:18.276Z,1.50
2022-10-31T05:05:18.292Z,1.50
2022-10-31T05:06:18.248Z,1.60
2022-10-31T05:07:18.257Z,1.80
2022-10-31T05:08:18.264Z,1.70
2022-10-31T05:09:18.238Z,1.70
2022-10-31T05:10:18.195Z,1.40
2022-10-31T05:11:18.196Z,1.40
2022-10-31T05:12:18.205Z,1.90
2022-10-31T05:13:18.218Z,1.50
2022-10-31T05:14:18.155Z,1.70
2022-10-31T05:15:18.183Z,2.00
2022-10-31T05:16:18.145Z,1.60
2022-10-31T05:17:18.136Z,1.40
2022-10-31T05:18:18.166Z,1.90
2022-10-31T05:19:18.116Z,1.90
2022-10-31T05:20:18.106Z,1.80
2022-10-31T05:21:18.107Z,1.60
2022-10-31T05:22:18.128Z,1.30
2022-10-31T05:23:18.077Z,1.90
2022-10-31T05:24:18.068Z,1.80
2022-10-31T05:25:18.068Z,1.30
2022-10-31T05:26:22.719Z,1.60
2022-10-31T05:27:18.036Z,1.50
2022-10-31T05:28:18.045Z,1.60
2022-10-31T05:29:18.006Z,1.80
2022-10-31T05:30:18.007Z,1.60
2022-10-31T05:31:18.003Z,1.70
2022-10-31T05:32:17.988Z,1.80
2022-10-31T05:33:17.982Z,1.50
2022-10-31T05:34:17.987Z,1.40
2022-10-31T05:35:17.961Z,1.60
2022-10-31T05:36:17.938Z,1.60
2022-10-31T05:37:17.928Z,2.10
2022-10-31T05:38:17.923Z,1.50
2022-10-31T05:39:17.914Z,1.90
2022-10-31T05:40:17.916Z,1.60
2022-10-31T05:41:17.896Z,1.70
2022-10-31T05:42:17.890Z,1.80
2022-10-31T05:43:17.878Z,1.70
2022-10-31T05:44:17.859Z,1.70
2022-10-31T05:45:17.858Z,1.30
2022-10-31T05:46:17.860Z,1.90
2022-10-31T05:47:17.838Z,1.70
2022-10-31T05:48:17.819Z,1.60
2022-10-31T05:49:17.849Z,1.30
2022-10-31T05:50:17.797Z,1.40
2022-10-31T05:51:17.797Z,1.30
2022-10-31T05:52:17.796Z,1.70
2022-10-31T05:53:17.818Z,1.40
2022-10-31T05:54:17.758Z,1.00
2022-10-31T05:55:17.787Z,1.40
2022-10-31T05:56:17.757Z,1.60
2022-10-31T05:57:17.727Z,1.60
2022-10-31T05:58:17.730Z,1.30
2022-10-31T05:59:17.719Z,1.60
2022-10-31T06:00:17.699Z,1.70
2022-10-31T06:01:17.753Z,1.70
2022-10-31T06:02:17.698Z,1.80
2022-10-31T06:03:17.669Z,1.90
2022-10-31T06:04:17.678Z,1.40
2022-10-31T06:05:17.673Z,1.60
2022-10-31T06:06:17.637Z,1.50
2022-10-31T06:07:17.643Z,1.90
2022-10-31T06:08:17.628Z,1.80
2022-10-31T06:09:17.609Z,1.80
2022-10-31T06:10:17.596Z,1.70
2022-10-31T06:11:17.598Z,1.80
2022-10-31T06:12:17.580Z,1.60
2022-10-31T06:13:17.557Z,1.40
2022-10-31T06:14:17.640Z,1.50
2022-10-31T06:15:23.309Z,1.40
2022-10-31T06:16:18.539Z,1.80
2022-10-31T06:17:17.560Z,1.30
2022-10-31T06:18:17.521Z,1.60
2022-10-31T06:19:17.527Z,1.60
2022-10-31T06:20:17.559Z,1.60
2022-10-31T06:21:19.095Z,1.70
2022-10-31T06:22:17.468Z,2.10
2022-10-31T06:23:17.487Z,1.80
2022-10-31T06:24:17.456Z,1.40
2022-10-31T06:25:17.457Z,1.40
2022-10-31T06:26:17.491Z,1.40
2022-10-31T06:28:14.238Z,1.40
2022-10-31T06:29:14.226Z,1.40
2022-10-31T06:30:14.198Z,1.60
2022-10-31T06:31:14.194Z,1.40
2022-10-31T06:32:14.197Z,1.70
2022-10-31T06:33:14.214Z,1.80
2022-10-31T06:34:14.169Z,1.40
2022-10-31T06:35:14.182Z,1.40
2022-10-31T06:36:14.196Z,1.30
2022-10-31T06:37:14.146Z,1.60
2022-10-31T06:38:14.149Z,1.70
2022-10-31T06:39:14.508Z,1.40
2022-10-31T06:40:14.059Z,1.90
2022-10-31T06:41:14.038Z,1.50
2022-10-31T06:42:14.048Z,1.60
2022-10-31T06:43:14.017Z,1.70
2022-10-31T06:44:14.010Z,1.40
2022-10-31T06:45:14.007Z,1.60
2022-10-31T06:46:14.008Z,1.80
2022-10-31T06:47:13.976Z,1.70
2022-10-31T06:48:18.221Z,1.60
2022-10-31T06:49:13.980Z,1.90
2022-10-31T06:50:13.954Z,1.60
2022-10-31T06:51:13.960Z,1.40
2022-10-31T06:52:14.883Z,1.70
2022-10-31T06:53:13.967Z,1.30
2022-10-31T06:54:13.901Z,1.30
2022-10-31T06:55:13.887Z,1.40
2022-10-31T06:56:13.989Z,1.40
2022-10-31T06:57:13.890Z,1.40
2022-10-31T06:58:13.884Z,1.20
2022-10-31T06:59:13.892Z,1.40
2022-10-31T07:00:13.850Z,1.50
2022-10-31T07:01:14.013Z,1.50
2022-10-31T07:02:13.985Z,1.90
2022-10-31T07:03:13.834Z,1.50
2022-10-31T07:04:13.820Z,1.80
2022-10-31T07:05:13.788Z,1.70
2022-10-31T07:06:13.777Z,1.30
2022-10-31T07:07:14.031Z,1.50
2022-10-31T07:08:13.766Z,1.20
2022-10-31T07:09:13.748Z,1.50
2022-10-31T07:10:13.807Z,1.80
2022-10-31T07:11:13.727Z,1.20
2022-10-31T07:12:13.756Z,1.60
2022-10-31T07:13:13.726Z,1.60
2022-10-31T07:14:13.700Z,1.60
2022-10-31T07:15:13.701Z,1.50
2022-10-31T07:16:13.691Z,1.40
2022-10-31T07:17:13.669Z,1.40
2022-10-31T07:18:13.688Z,1.50
2022-10-31T07:19:13.660Z,1.40
2022-10-31T07:20:13.642Z,1.70
2022-10-31T07:21:13.631Z,1.80
2022-10-31T07:22:13.659Z,1.60
2022-10-31T07:23:14.021Z,1.40
2022-10-31T07:24:13.593Z,1.70
2022-10-31T07:25:13.611Z,2.20
2022-10-31T07:26:13.643Z,1.60
2022-10-31T07:27:13.578Z,1.50
2022-10-31T07:28:13.561Z,1.50
2022-10-31T07:29:13.571Z,1.40
2022-10-31T07:30:13.571Z,1.50
2022-10-31T07:31:14.480Z,1.40
2022-10-31T07:32:13.541Z,1.30
2022-10-31T07:33:13.512Z,1.70
2022-10-31T07:34:13.971Z,1.40
2022-10-31T07:35:13.482Z,2.10
2022-10-31T07:36:13.471Z,1.80
2022-10-31T07:37:13.472Z,1.40
2022-10-31T07:38:13.451Z,1.60
2022-10-31T07:39:13.469Z,1.30
2022-10-31T07:40:13.466Z,1.60
2022-10-31T07:41:13.437Z,1.40
2022-10-31T07:42:13.409Z,1.30
2022-10-31T07:43:14.541Z,1.70
2022-10-31T07:44:13.399Z,1.60
2022-10-31T07:45:13.500Z,1.60
2022-10-31T07:46:13.390Z,1.50
2022-10-31T07:47:13.364Z,1.60
2022-10-31T07:48:13.371Z,1.60
2022-10-31T07:49:13.351Z,1.50
2022-10-31T07:50:13.342Z,1.60
2022-10-31T07:51:13.343Z,1.70
2022-10-31T07:52:13.362Z,1.60
2022-10-31T07:53:13.302Z,1.20
2022-10-31T07:54:13.279Z,1.90
2022-10-31T07:55:13.282Z,1.60
2022-10-31T07:56:13.300Z,1.60
2022-10-31T07:57:13.310Z,1.40
2022-10-31T07:58:13.254Z,1.30
2022-10-31T07:59:13.240Z,1.60
2022-10-31T08:00:13.288Z,1.40
2022-10-31T08:02:13.230Z,1.50
2022-10-31T08:03:13.222Z,1.40
2022-10-31T08:04:13.194Z,1.60
2022-10-31T08:05:13.192Z,1.30
2022-10-31T08:06:13.192Z,1.70
2022-10-31T08:07:13.172Z,1.50
2022-10-31T08:08:14.843Z,1.30
2022-10-31T08:09:13.152Z,1.20
2022-10-31T08:10:13.160Z,1.20
2022-10-31T08:11:13.189Z,1.60
2022-10-31T08:12:13.102Z,1.50
2022-10-31T08:13:13.097Z,1.40
2022-10-31T08:14:13.106Z,1.60
2022-10-31T08:15:13.081Z,1.50
2022-10-31T08:16:13.073Z,1.30
2022-10-31T08:17:13.071Z,1.20
2022-10-31T08:18:13.072Z,1.50
2022-10-31T08:19:13.513Z,1.30
2022-10-31T08:20:13.033Z,1.60
2022-10-31T08:21:13.012Z,1.30
2022-10-31T08:22:13.033Z,1.30
2022-10-31T08:23:12.993Z,1.20
2022-10-31T08:24:12.991Z,1.00
2022-10-31T08:25:13.003Z,1.60
2022-10-31T08:26:13.052Z,1.40
2022-10-31T08:27:12.963Z,1.20
2022-10-31T08:28:12.962Z,1.50
2022-10-31T08:29:12.932Z,0.90
2022-10-31T08:30:12.934Z,1.40
2022-10-31T08:31:12.962Z,1.30
2022-10-31T08:32:12.931Z,1.40
2022-10-31T08:33:12.920Z,1.50
2022-10-31T08:34:12.900Z,1.50
2022-10-31T08:35:12.868Z,1.40
2022-10-31T08:36:12.862Z,1.50
2022-10-31T08:37:12.891Z,1.70
2022-10-31T08:38:12.852Z,1.70
2022-10-31T08:39:12.832Z,1.90
2022-10-31T08:40:13.045Z,1.60
2022-10-31T08:41:12.820Z,1.30
2022-10-31T08:42:12.834Z,1.40
2022-10-31T08:43:12.837Z,1.50
2022-10-31T08:44:12.836Z,1.50
2022-10-31T08:45:12.795Z,1.40
2022-10-31T08:46:12.785Z,1.50
2022-10-31T08:47:12.764Z,1.50
2022-10-31T08:48:12.745Z,1.30
2022-10-31T08:49:12.745Z,1.20
2022-10-31T08:50:12.742Z,1.10
2022-10-31T08:51:12.712Z,1.30
2022-10-31T08:52:14.529Z,1.30
2022-10-31T08:53:12.704Z,1.50
2022-10-31T08:54:14.592Z,1.60
2022-10-31T08:55:12.673Z,1.60
2022-10-31T08:56:12.702Z,1.20
2022-10-31T08:57:12.653Z,1.20
2022-10-31T08:58:12.652Z,1.20
2022-10-31T08:59:12.637Z,1.20
2022-10-31T09:00:12.662Z,1.20
2022-10-31T09:01:12.730Z,1.40
2022-10-31T09:02:12.654Z,1.20
2022-10-31T09:03:12.598Z,1.60
2022-10-31T09:04:12.583Z,1.50
2022-10-31T09:05:12.752Z,2.00
2022-10-31T09:06:12.613Z,2.20
2022-10-31T09:07:20.483Z,3.90
2022-10-31T09:08:16.752Z,3.80
2022-10-31T09:09:12.512Z,3.60
2022-10-31T09:10:12.523Z,3.00
2022-10-31T09:11:12.963Z,3.10
2022-10-31T09:12:12.493Z,2.80
2022-10-31T09:13:12.484Z,2.90
2022-10-31T09:14:12.485Z,2.90
2022-10-31T09:15:12.474Z,3.00
2022-10-31T09:16:12.488Z,3.50
2022-10-31T09:17:12.446Z,3.20
2022-10-31T09:18:12.441Z,4.60
2022-10-31T09:19:12.433Z,4.70
2022-10-31T09:20:12.565Z,4.00
2022-10-31T09:21:12.420Z,3.50
2022-10-31T09:22:12.394Z,2.90
2022-10-31T09:23:12.376Z,3.00
2022-10-31T09:24:12.396Z,3.10
2022-10-31T09:25:12.385Z,3.10
2022-10-31T09:26:12.455Z,3.20
2022-10-31T09:27:12.355Z,2.90
2022-10-31T09:28:12.355Z,3.10
2022-10-31T09:29:12.365Z,2.40
2022-10-31T09:30:12.324Z,3.00
2022-10-31T09:31:12.292Z,3.10
2022-10-31T09:32:12.302Z,2.20
2022-10-31T09:33:12.571Z,2.20
2022-10-31T09:34:12.303Z,2.60
2022-10-31T09:36:12.253Z,2.90
2022-10-31T09:37:12.233Z,2.60
2022-10-31T09:38:12.253Z,2.20
2022-10-31T09:39:12.234Z,2.10
2022-10-31T09:40:12.223Z,2.50
2022-10-31T09:41:13.014Z,2.50
2022-10-31T09:42:12.187Z,2.50
2022-10-31T09:43:12.177Z,2.40
2022-10-31T09:44:13.848Z,2.70
2022-10-31T09:45:12.163Z,3.00
2022-10-31T09:46:12.173Z,2.50
2022-10-31T09:47:12.156Z,2.80
2022-10-31T09:48:12.165Z,2.30
2022-10-31T09:49:12.148Z,2.40
2022-10-31T09:50:12.514Z,2.30
2022-10-31T09:51:12.084Z,2.70
2022-10-31T09:52:12.118Z,2.70
2022-10-31T09:53:12.114Z,2.70
2022-10-31T09:54:12.073Z,2.40
2022-10-31T09:55:12.056Z,2.00
2022-10-31T09:56:12.148Z,2.60
2022-10-31T09:57:12.046Z,2.60
2022-10-31T09:58:12.047Z,2.50
2022-10-31T09:59:12.017Z,2.40
2022-10-31T10:00:12.015Z,2.50
2022-10-31T10:01:12.058Z,1.90
2022-10-31T10:02:12.059Z,2.30
2022-10-31T10:03:11.968Z,2.00
2022-10-31T10:04:13.756Z,2.80
2022-10-31T10:05:11.966Z,2.10
2022-10-31T10:06:11.934Z,2.50
2022-10-31T10:07:11.923Z,2.30
2022-10-31T10:08:15.119Z,2.50
2022-10-31T10:09:11.937Z,2.00
2022-10-31T10:10:11.937Z,2.30
2022-10-31T10:11:11.896Z,2.10
2022-10-31T10:12:11.909Z,2.70
2022-10-31T10:13:12.206Z,2.50
2022-10-31T10:14:11.876Z,2.30
2022-10-31T10:15:11.850Z,2.30
2022-10-31T10:16:11.845Z,2.10
2022-10-31T10:17:11.836Z,2.40
2022-10-31T10:18:11.836Z,2.20
2022-10-31T10:19:11.796Z,2.20
2022-10-31T10:20:12.719Z,2.30
2022-10-31T10:21:11.775Z,1.90
2022-10-31T10:22:11.796Z,2.30
2022-10-31T10:23:11.755Z,2.40
2022-10-31T10:24:11.787Z,1.70
2022-10-31T10:25:11.736Z,2.00
2022-10-31T10:26:11.756Z,1.60
2022-10-31T10:27:11.743Z,1.80
2022-10-31T10:28:11.728Z,1.70
2022-10-31T10:29:12.067Z,2.20
2022-10-31T10:30:11.686Z,1.90
2022-10-31T10:31:11.686Z,2.00
2022-10-31T10:32:11.665Z,2.10
2022-10-31T10:33:11.656Z,2.20
2022-10-31T10:34:11.647Z,2.20
2022-10-31T10:35:11.668Z,2.00
2022-10-31T10:36:11.626Z,2.30
2022-10-31T10:37:11.628Z,2.10
2022-10-31T10:38:11.647Z,2.10
2022-10-31T10:39:11.607Z,2.00
2022-10-31T10:40:11.645Z,2.00
2022-10-31T10:41:11.579Z,2.30
2022-10-31T10:42:12.529Z,1.90
2022-10-31T10:43:11.566Z,1.90
2022-10-31T10:44:11.546Z,2.20
2022-10-31T10:45:11.536Z,2.00
2022-10-31T10:46:12.212Z,2.00
2022-10-31T10:47:11.528Z,2.10
2022-10-31T10:48:11.510Z,1.90
2022-10-31T10:49:11.519Z,1.90
2022-10-31T10:50:11.498Z,1.80
2022-10-31T10:51:25.543Z,2.10
2022-10-31T10:52:27.432Z,2.40
2022-10-31T10:53:12.488Z,2.00
2022-10-31T10:54:11.459Z,2.20
2022-10-31T10:55:11.433Z,1.90
2022-10-31T10:56:11.508Z,2.00
2022-10-31T10:57:11.418Z,1.90
2022-10-31T10:58:11.540Z,2.00
2022-10-31T10:59:11.388Z,1.80
2022-10-31T11:00:11.394Z,2.20
2022-10-31T11:01:11.573Z,1.90
2022-10-31T11:02:12.369Z,1.90
2022-10-31T11:03:11.365Z,2.00
2022-10-31T11:04:11.336Z,2.00
2022-10-31T11:05:11.317Z,1.90
2022-10-31T11:06:11.318Z,2.10
2022-10-31T11:07:11.323Z,2.10
2022-10-31T11:08:11.508Z,1.70
2022-10-31T11:09:11.348Z,1.70
2022-10-31T11:10:11.278Z,2.10
2022-10-31T11:11:11.268Z,1.80
2022-10-31T11:12:11.259Z,1.80
2022-10-31T11:13:11.267Z,1.90
2022-10-31T11:14:11.247Z,1.80
2022-10-31T11:15:11.270Z,2.20
2022-10-31T11:16:11.228Z,2.00
2022-10-31T11:17:11.227Z,2.20
2022-10-31T11:18:11.618Z,2.00
2022-10-31T11:19:11.177Z,1.90
2022-10-31T11:20:16.157Z,2.00
2022-10-31T11:21:12.186Z,2.10
2022-10-31T11:22:11.190Z,2.10
2022-10-31T11:23:11.655Z,1.90
2022-10-31T11:24:11.161Z,1.60
2022-10-31T11:25:11.149Z,2.30
2022-10-31T11:26:11.158Z,1.50
2022-10-31T11:27:11.559Z,1.50
2022-10-31T11:29:07.821Z,1.90
2022-10-31T11:30:08.710Z,1.80
2022-10-31T11:31:07.751Z,1.90
2022-10-31T11:32:07.752Z,2.00
2022-10-31T11:33:07.758Z,1.70
2022-10-31T11:34:07.721Z,2.00
2022-10-31T11:35:07.734Z,1.90
2022-10-31T11:36:07.743Z,2.40
2022-10-31T11:37:07.712Z,1.70
2022-10-31T11:38:07.683Z,1.80
2022-10-31T11:39:09.433Z,1.80
2022-10-31T11:40:07.703Z,2.00
2022-10-31T11:41:07.680Z,2.10
2022-10-31T11:42:09.074Z,1.70
2022-10-31T11:43:07.652Z,1.70
2022-10-31T11:44:07.622Z,2.20
2022-10-31T11:45:08.001Z,1.60
2022-10-31T11:46:07.601Z,1.80
2022-10-31T11:47:07.618Z,1.40
2022-10-31T11:48:07.734Z,1.80
2022-10-31T11:49:07.561Z,1.70
2022-10-31T11:50:07.571Z,1.70
2022-10-31T11:51:07.602Z,2.20
2022-10-31T11:52:07.544Z,1.80
2022-10-31T11:53:07.536Z,1.50
2022-10-31T11:54:07.534Z,2.10
2022-10-31T11:55:08.063Z,1.80
2022-10-31T11:56:07.571Z,1.80
2022-10-31T11:57:07.522Z,1.90
2022-10-31T11:58:07.472Z,1.60
2022-10-31T11:59:07.478Z,2.10
2022-10-31T12:00:07.542Z,1.70
2022-10-31T12:01:07.518Z,2.00
2022-10-31T12:02:07.533Z,1.70
2022-10-31T12:03:07.490Z,1.80
2022-10-31T12:04:07.424Z,2.10
2022-10-31T12:05:07.413Z,1.70
2022-10-31T12:06:07.451Z,1.80
2022-10-31T12:07:07.504Z,2.00
2022-10-31T12:08:07.382Z,2.00
2022-10-31T12:09:07.392Z,1.90
2022-10-31T12:10:07.352Z,1.60
2022-10-31T12:11:07.344Z,1.90
2022-10-31T12:12:07.984Z,1.70
2022-10-31T12:13:07.343Z,2.00
2022-10-31T12:14:07.303Z,1.70
2022-10-31T12:15:07.305Z,1.90
2022-10-31T12:16:07.311Z,1.40
2022-10-31T12:17:07.596Z,2.10
2022-10-31T12:18:07.305Z,1.90
2022-10-31T12:19:07.287Z,1.50
2022-10-31T12:20:07.254Z,1.60
2022-10-31T12:21:07.271Z,2.00
2022-10-31T12:22:07.255Z,1.60
2022-10-31T12:23:07.234Z,2.10
2022-10-31T12:24:07.213Z,1.60
2022-10-31T12:25:07.204Z,2.10
2022-10-31T12:26:07.232Z,1.70
2022-10-31T12:27:07.523Z,1.80
2022-10-31T12:28:07.256Z,1.80
2022-10-31T12:29:07.171Z,2.20
2022-10-31T12:30:07.218Z,2.00
2022-10-31T12:31:07.145Z,1.40
2022-10-31T12:32:07.157Z,1.60
2022-10-31T12:33:07.135Z,1.80
2022-10-31T12:34:07.124Z,1.80
2022-10-31T12:35:07.116Z,1.70
2022-10-31T12:36:09.656Z,1.90
2022-10-31T12:37:09.756Z,1.80
2022-10-31T12:38:07.120Z,2.10
2022-10-31T12:39:07.071Z,1.90
2022-10-31T12:40:07.045Z,1.90
2022-10-31T12:41:07.053Z,1.90
2022-10-31T12:42:07.044Z,1.50
2022-10-31T12:43:07.043Z,2.00
2022-10-31T12:44:07.005Z,1.40
2022-10-31T12:45:06.997Z,1.80
2022-10-31T12:46:06.993Z,1.80
2022-10-31T12:47:07.120Z,2.00
2022-10-31T12:48:06.975Z,1.70
2022-10-31T12:49:06.964Z,1.90
2022-10-31T12:50:06.985Z,1.40
2022-10-31T12:51:06.946Z,2.40
2022-10-31T12:52:06.925Z,1.80
2022-10-31T12:53:06.986Z,1.60
2022-10-31T12:54:06.915Z,2.30
2022-10-31T12:55:06.898Z,1.30
2022-10-31T12:56:06.974Z,1.60
2022-10-31T12:57:06.882Z,1.80
2022-10-31T12:58:07.004Z,1.70
2022-10-31T12:59:06.884Z,2.00
2022-10-31T13:00:06.876Z,1.90
2022-10-31T13:01:06.897Z,1.90
2022-10-31T13:02:06.921Z,1.80
2022-10-31T13:03:06.850Z,1.80
2022-10-31T13:04:06.804Z,1.60
2022-10-31T13:05:06.814Z,1.90
2022-10-31T13:06:06.785Z,1.90
2022-10-31T13:07:06.776Z,1.60
2022-10-31T13:08:06.774Z,1.70
2022-10-31T13:09:06.814Z,2.00
2022-10-31T13:10:06.790Z,1.70
2022-10-31T13:11:06.740Z,1.50
2022-10-31T13:12:06.744Z,1.60
2022-10-31T13:13:06.756Z,1.60
2022-10-31T13:14:06.715Z,1.50
2022-10-31T13:15:06.747Z,1.50
2022-10-31T13:16:06.696Z,1.50
2022-10-31T13:17:06.699Z,1.50
2022-10-31T13:18:06.680Z,1.60
2022-10-31T13:19:07.338Z,1.50
2022-10-31T13:20:06.634Z,2.00
2022-10-31T13:21:06.634Z,1.70
2022-10-31T13:22:06.632Z,1.50
2022-10-31T13:23:17.872Z,1.40
2022-10-31T13:24:07.636Z,1.50
2022-10-31T13:25:06.594Z,1.50
2022-10-31T13:26:06.627Z,1.40
2022-10-31T13:27:06.576Z,1.60
2022-10-31T13:28:06.574Z,1.50
2022-10-31T13:29:06.597Z,1.50